createdAt,value
2018-06-13T00:02:11.420Z,15.60
2018-06-13T00:04:39.884Z,15.50
2018-06-13T00:07:08.377Z,15.50
2018-06-13T00:09:36.953Z,15.40
2018-06-13T00:12:05.435Z,15.40
2018-06-13T00:14:33.854Z,15.30
2018-06-13T00:17:02.310Z,15.30
2018-06-13T00:19:30.877Z,15.30
2018-06-13T00:21:59.299Z,15.30
2018-06-13T00:24:27.897Z,15.40
2018-06-13T00:26:56.374Z,15.30
2018-06-13T00:29:24.855Z,15.30
2018-06-13T00:31:53.325Z,15.40
2018-06-13T00:34:21.927Z,15.40
2018-06-13T00:39:18.795Z,15.40
2018-06-13T00:41:47.303Z,15.40
2018-06-13T00:44:15.769Z,15.40
2018-06-13T00:46:44.198Z,15.30
2018-06-13T00:49:12.667Z,15.30
2018-06-13T00:51:41.074Z,15.40
2018-06-13T00:54:09.488Z,15.30
2018-06-13T00:56:37.942Z,15.50
2018-06-13T00:59:06.383Z,15.50
2018-06-13T01:01:34.853Z,15.50
2018-06-13T01:04:03.294Z,15.40
2018-06-13T01:08:59.933Z,15.40
2018-06-13T01:11:28.401Z,15.30
2018-06-13T01:13:57.038Z,15.30
2018-06-13T01:16:26.324Z,15.30
2018-06-13T01:18:55.097Z,15.30
2018-06-13T01:21:23.587Z,15.30
2018-06-13T01:23:52.038Z,15.30
2018-06-13T01:26:20.534Z,15.30
2018-06-13T01:28:49.230Z,15.30
2018-06-13T01:31:17.874Z,15.20
2018-06-13T01:33:46.447Z,15.20
2018-06-13T01:36:14.929Z,15.10
2018-06-13T01:38:43.578Z,15.10
2018-06-13T01:41:12.068Z,15.10
2018-06-13T01:43:40.554Z,15.10
2018-06-13T01:46:09.032Z,15.20
2018-06-13T01:48:37.469Z,15.10
2018-06-13T01:51:05.930Z,15.10
2018-06-13T01:53:34.404Z,15.00
2018-06-13T01:56:02.907Z,15.00
2018-06-13T01:58:31.410Z,15.00
2018-06-13T02:01:00.131Z,14.90
2018-06-13T02:03:28.612Z,14.90
2018-06-13T02:05:57.054Z,14.90
2018-06-13T02:08:25.558Z,14.90
2018-06-13T02:10:54.019Z,14.90
2018-06-13T02:13:22.506Z,14.90
2018-06-13T02:15:50.990Z,14.90
2018-06-13T02:18:19.641Z,14.90
2018-06-13T02:20:48.162Z,14.90
2018-06-13T02:23:16.611Z,14.90
2018-06-13T02:25:45.061Z,14.90
2018-06-13T02:28:13.617Z,14.90
2018-06-13T02:30:42.091Z,14.90
2018-06-13T02:33:10.533Z,14.90
2018-06-13T02:35:39.296Z,14.90
2018-06-13T02:38:07.774Z,14.90
2018-06-13T02:40:36.367Z,14.90
2018-06-13T02:43:05.121Z,14.90
2018-06-13T02:45:33.669Z,15.00
2018-06-13T02:48:02.250Z,15.00
2018-06-13T02:50:30.739Z,14.90
2018-06-13T02:52:59.194Z,14.90
2018-06-13T02:55:27.646Z,14.90
2018-06-13T02:57:56.123Z,14.90
2018-06-13T03:00:24.589Z,14.80
2018-06-13T03:02:53.058Z,14.80
2018-06-13T03:05:21.602Z,14.80
2018-06-13T03:07:50.130Z,14.80
2018-06-13T03:10:18.893Z,14.80
2018-06-13T03:12:47.420Z,14.80
2018-06-13T03:15:15.866Z,14.80
2018-06-13T03:17:44.294Z,14.90
2018-06-13T03:20:12.955Z,14.90
2018-06-13T03:22:41.471Z,15.00
2018-06-13T03:27:38.141Z,14.90
2018-06-13T03:30:06.806Z,14.90
2018-06-13T03:32:35.284Z,15.00
2018-06-13T03:35:03.782Z,15.00
2018-06-13T03:37:32.280Z,14.90
2018-06-13T03:40:00.771Z,14.80
2018-06-13T03:42:29.269Z,14.70
2018-06-13T03:44:57.784Z,14.70
2018-06-13T03:47:26.298Z,14.70
2018-06-13T03:49:54.720Z,14.70
2018-06-13T03:52:23.228Z,14.80
2018-06-13T03:54:51.736Z,14.70
2018-06-13T03:57:20.210Z,14.70
2018-06-13T03:59:48.820Z,14.70
2018-06-13T04:02:17.350Z,14.60
2018-06-13T04:04:45.870Z,14.70
2018-06-13T04:07:14.973Z,14.70
2018-06-13T04:09:43.369Z,14.60
2018-06-13T04:12:12.017Z,14.60
2018-06-13T04:14:40.712Z,14.50
2018-06-13T04:17:09.213Z,14.60
2018-06-13T04:19:37.705Z,14.50
2018-06-13T04:22:06.239Z,14.50
2018-06-13T04:27:02.921Z,14.50
2018-06-13T04:29:31.571Z,14.60
2018-06-13T04:32:00.115Z,14.60
2018-06-13T04:34:28.567Z,14.60
2018-06-13T04:36:57.241Z,14.70
2018-06-13T04:39:25.710Z,14.70
2018-06-13T04:41:54.487Z,14.70
2018-06-13T04:44:22.878Z,14.60
2018-06-13T04:46:51.348Z,14.60
2018-06-13T04:49:19.768Z,14.70
2018-06-13T04:51:48.207Z,14.70
2018-06-13T04:56:44.910Z,14.70
2018-06-13T04:59:13.437Z,14.70
2018-06-13T05:01:42.025Z,14.60
2018-06-13T05:04:10.470Z,14.60
2018-06-13T05:06:38.982Z,14.70
2018-06-13T05:09:08.393Z,14.60
2018-06-13T05:14:05.246Z,14.70
2018-06-13T05:16:33.823Z,14.60
2018-06-13T05:19:02.291Z,14.60
2018-06-13T05:21:30.773Z,14.50
2018-06-13T05:23:59.192Z,14.60
2018-06-13T05:26:27.706Z,14.50
2018-06-13T05:28:56.410Z,14.50
2018-06-13T05:31:25.071Z,14.50
2018-06-13T05:33:54.222Z,14.60
2018-06-13T05:38:51.160Z,14.60
2018-06-13T05:41:19.679Z,14.60
2018-06-13T05:43:48.254Z,14.60
2018-06-13T05:46:16.706Z,14.70
2018-06-13T05:48:45.163Z,14.60
2018-06-13T05:51:13.614Z,14.50
2018-06-13T05:53:42.179Z,14.50
2018-06-13T05:56:10.650Z,14.60
2018-06-13T05:58:39.175Z,14.60
2018-06-13T06:01:07.642Z,14.50
2018-06-13T06:03:36.165Z,14.50
2018-06-13T06:06:04.658Z,14.50
2018-06-13T06:08:33.133Z,14.50
2018-06-13T06:11:01.850Z,14.60
2018-06-13T06:13:30.361Z,14.60
2018-06-13T06:15:58.893Z,14.60
2018-06-13T06:18:27.378Z,14.70
2018-06-13T06:20:55.840Z,14.80
2018-06-13T06:23:25.295Z,14.90
2018-06-13T06:25:53.806Z,14.90
2018-06-13T06:28:22.295Z,14.90
2018-06-13T06:30:50.815Z,15.00
2018-06-13T06:33:19.360Z,15.00
2018-06-13T06:35:47.842Z,14.90
2018-06-13T06:38:16.428Z,14.90
2018-06-13T06:40:44.878Z,14.90
2018-06-13T06:43:13.377Z,15.10
2018-06-13T06:45:41.839Z,15.30
2018-06-13T06:48:10.435Z,15.30
2018-06-13T06:50:38.908Z,15.20
2018-06-13T06:53:07.354Z,15.30
2018-06-13T06:55:35.909Z,15.30
2018-06-13T06:58:04.353Z,15.30
2018-06-13T07:00:32.840Z,15.40
2018-06-13T07:03:02.135Z,15.10
2018-06-13T07:05:30.658Z,15.10
2018-06-13T07:07:59.086Z,15.40
2018-06-13T07:10:28.251Z,15.70
2018-06-13T07:15:24.886Z,15.90
2018-06-13T07:17:53.417Z,15.60
2018-06-13T07:20:21.899Z,15.50
2018-06-13T07:22:50.370Z,15.50
2018-06-13T07:25:18.847Z,15.40
2018-06-13T07:27:47.278Z,15.50
2018-06-13T07:30:15.830Z,15.40
2018-06-13T07:32:44.272Z,15.20
2018-06-13T07:35:12.726Z,15.30
2018-06-13T07:37:41.254Z,15.40
2018-06-13T07:40:09.723Z,15.40
2018-06-13T07:42:38.264Z,15.50
2018-06-13T07:45:06.718Z,15.70
2018-06-13T07:47:35.186Z,15.60
2018-06-13T07:50:03.772Z,15.60
2018-06-13T07:52:32.485Z,15.60
2018-06-13T07:55:00.947Z,15.60
2018-06-13T07:57:29.422Z,15.50
2018-06-13T07:59:57.906Z,15.50
2018-06-13T08:02:26.538Z,15.60
2018-06-13T08:07:23.186Z,15.80
2018-06-13T08:09:51.663Z,15.80
2018-06-13T08:12:20.177Z,15.70
2018-06-13T08:14:48.676Z,15.80
2018-06-13T08:17:17.149Z,16.20
2018-06-13T08:19:45.667Z,16.20
2018-06-13T08:22:14.186Z,16.00
2018-06-13T08:27:16.523Z,15.60
2018-06-13T08:29:44.958Z,15.60
2018-06-13T08:32:13.423Z,15.70
2018-06-13T08:37:10.054Z,15.70
2018-06-13T08:39:38.460Z,15.70
2018-06-13T08:42:06.925Z,15.60
2018-06-13T08:44:36.126Z,15.70
2018-06-13T08:47:04.627Z,15.70
2018-06-13T08:49:33.139Z,15.70
2018-06-13T08:52:01.673Z,15.60
2018-06-13T08:54:30.150Z,15.60
2018-06-13T08:56:58.648Z,15.60
2018-06-13T08:59:27.161Z,15.60
2018-06-13T09:01:55.703Z,15.60
2018-06-13T09:04:24.141Z,15.70
2018-06-13T09:06:52.628Z,15.70
2018-06-13T09:09:21.082Z,15.80
2018-06-13T09:11:49.695Z,15.90
2018-06-13T09:14:18.214Z,15.80
2018-06-13T09:16:46.659Z,15.80
2018-06-13T09:19:15.102Z,15.50
2018-06-13T09:21:43.599Z,15.40
2018-06-13T09:24:12.105Z,15.20
2018-06-13T09:26:40.550Z,15.10
2018-06-13T09:29:08.997Z,15.10
2018-06-13T09:31:37.435Z,15.10
2018-06-13T09:34:06.046Z,15.10
2018-06-13T09:36:34.503Z,15.10
2018-06-13T09:39:03.323Z,15.00
2018-06-13T09:41:31.813Z,14.90
2018-06-13T09:44:00.575Z,14.80
2018-06-13T09:46:28.979Z,14.80
2018-06-13T09:48:57.462Z,14.80
2018-06-13T09:51:25.955Z,14.80
2018-06-13T09:53:54.439Z,14.90
2018-06-13T09:56:23.775Z,15.00
2018-06-13T09:58:57.664Z,15.00
2018-06-13T10:01:31.490Z,15.00
2018-06-13T10:04:00.103Z,15.20
2018-06-13T10:08:56.695Z,15.30
2018-06-13T10:11:25.214Z,15.20
2018-06-13T10:13:53.733Z,15.30
2018-06-13T10:16:22.193Z,15.40
2018-06-13T10:18:50.650Z,15.50
2018-06-13T10:21:19.122Z,15.40
2018-06-13T10:23:47.604Z,15.40
2018-06-13T10:26:16.107Z,15.50
2018-06-13T10:28:44.609Z,15.50
2018-06-13T10:31:13.204Z,15.50
2018-06-13T10:36:09.850Z,15.50
2018-06-13T10:38:38.344Z,15.50
2018-06-13T10:41:06.793Z,15.40
2018-06-13T10:43:35.270Z,15.40
2018-06-13T10:46:03.736Z,15.50
2018-06-13T10:48:32.267Z,15.60
2018-06-13T10:51:00.701Z,15.60
2018-06-13T10:53:29.210Z,15.50
2018-06-13T10:55:57.761Z,15.60
2018-06-13T10:58:26.274Z,15.70
2018-06-13T11:00:54.774Z,15.70
2018-06-13T11:03:23.388Z,15.70
2018-06-13T11:05:51.860Z,15.60
2018-06-13T11:08:20.345Z,15.60
2018-06-13T11:10:49.003Z,15.60
2018-06-13T11:13:17.540Z,15.40
2018-06-13T11:15:46.028Z,15.30
2018-06-13T11:18:14.606Z,15.20
2018-06-13T11:20:43.240Z,15.30
2018-06-13T11:23:11.766Z,15.40
2018-06-13T11:25:40.211Z,15.50
2018-06-13T11:28:08.725Z,15.60
2018-06-13T11:30:37.185Z,15.80
2018-06-13T11:33:05.825Z,15.80
2018-06-13T11:35:34.391Z,15.90
2018-06-13T11:38:02.919Z,16.10
2018-06-13T11:40:31.440Z,16.20
2018-06-13T11:42:59.972Z,16.40
2018-06-13T11:45:28.402Z,16.50
2018-06-13T11:47:56.967Z,16.60
2018-06-13T11:50:25.570Z,16.50
2018-06-13T11:52:54.309Z,16.40
2018-06-13T11:55:22.979Z,16.30
2018-06-13T12:00:20.356Z,16.00
2018-06-13T12:02:48.951Z,15.90
2018-06-13T12:05:17.449Z,15.90
2018-06-13T12:07:45.969Z,15.90
2018-06-13T12:10:14.501Z,15.90
2018-06-13T12:12:43.141Z,16.10
2018-06-13T12:15:11.711Z,16.20
2018-06-13T12:17:40.366Z,16.30
2018-06-13T12:20:08.956Z,16.40
2018-06-13T12:22:37.640Z,16.60
2018-06-13T12:25:06.116Z,16.80
2018-06-13T12:27:34.734Z,16.80
2018-06-13T12:30:03.398Z,16.90
2018-06-13T12:32:31.927Z,16.90
2018-06-13T12:35:00.545Z,16.70
2018-06-13T12:37:29.021Z,16.60
2018-06-13T12:39:57.549Z,16.50
2018-06-13T12:42:26.365Z,16.40
2018-06-13T12:47:23.136Z,16.30
2018-06-13T12:49:51.693Z,16.20
2018-06-13T12:52:20.672Z,16.10
2018-06-13T12:54:49.961Z,15.90
2018-06-13T12:57:18.524Z,15.90
2018-06-13T12:59:47.695Z,16.10
2018-06-13T13:02:16.180Z,16.10
2018-06-13T13:04:44.993Z,16.10
2018-06-13T13:07:13.810Z,16.20
2018-06-13T13:09:42.328Z,16.20
2018-06-13T13:12:11.195Z,16.50
2018-06-13T13:14:39.658Z,16.60
2018-06-13T13:17:08.214Z,16.50
2018-06-13T13:19:36.745Z,16.70
2018-06-13T13:22:05.375Z,16.90
2018-06-13T13:24:34.058Z,16.80
2018-06-13T13:27:02.710Z,16.70
2018-06-13T13:29:31.281Z,16.70
2018-06-13T13:31:59.834Z,16.70
2018-06-13T13:34:28.295Z,16.70
2018-06-13T13:36:56.891Z,16.70
2018-06-13T13:39:25.404Z,16.70
2018-06-13T13:41:53.946Z,16.70
2018-06-13T13:44:22.458Z,16.80
2018-06-13T13:46:51.083Z,16.70
2018-06-13T13:49:19.662Z,16.60
2018-06-13T13:51:48.274Z,16.60
2018-06-13T13:54:16.736Z,16.70
2018-06-13T13:56:45.146Z,16.80
2018-06-13T13:59:13.766Z,16.80
2018-06-13T14:04:10.540Z,16.90
2018-06-13T14:06:39.118Z,17.00
2018-06-13T14:09:09.070Z,17.10
2018-06-13T14:11:37.610Z,17.40
2018-06-13T14:14:06.132Z,17.50
2018-06-13T14:16:34.713Z,17.50
2018-06-13T14:19:03.414Z,17.10
2018-06-13T14:21:31.943Z,16.90
2018-06-13T14:24:00.491Z,16.70
2018-06-13T14:26:29.037Z,16.70
2018-06-13T14:28:57.729Z,16.60
2018-06-13T14:31:26.342Z,16.50
2018-06-13T14:33:54.923Z,16.50
2018-06-13T14:38:52.121Z,16.40
2018-06-13T14:41:20.667Z,16.50
2018-06-13T14:43:49.202Z,16.40
2018-06-13T14:46:18.125Z,16.30
2018-06-13T14:48:47.423Z,16.30
2018-06-13T14:51:15.907Z,16.30
2018-06-13T14:53:44.436Z,16.30
2018-06-13T14:58:46.515Z,16.40
2018-06-13T15:01:15.055Z,16.40
2018-06-13T15:03:43.817Z,16.40
2018-06-13T15:06:12.574Z,16.30
2018-06-13T15:11:09.651Z,16.30
2018-06-13T15:13:38.215Z,16.40
2018-06-13T15:18:35.106Z,16.40
2018-06-13T15:21:03.841Z,16.40
2018-06-13T15:23:32.380Z,16.50
2018-06-13T15:26:01.256Z,16.50
2018-06-13T15:28:29.813Z,16.60
2018-06-13T15:30:58.462Z,16.60
2018-06-13T15:33:26.941Z,16.60
2018-06-13T15:35:55.686Z,16.70
2018-06-13T15:38:24.506Z,16.70
2018-06-13T15:40:53.066Z,16.80
2018-06-13T15:43:21.779Z,16.90
2018-06-13T15:45:50.532Z,16.80
2018-06-13T15:50:47.278Z,16.60
2018-06-13T15:53:15.789Z,16.70
2018-06-13T15:55:44.371Z,16.80
2018-06-13T15:58:12.852Z,16.70
2018-06-13T16:00:41.541Z,16.70
2018-06-13T16:03:10.328Z,16.70
2018-06-13T16:05:38.914Z,16.60
2018-06-13T16:08:07.478Z,16.70
2018-06-13T16:10:36.083Z,16.70
2018-06-13T16:13:04.634Z,16.60
2018-06-13T16:15:33.124Z,16.60
2018-06-13T16:18:01.683Z,16.60
2018-06-13T16:20:30.178Z,16.60
2018-06-13T16:23:00.962Z,16.50
2018-06-13T16:25:29.505Z,16.40
2018-06-13T16:27:57.978Z,16.40
2018-06-13T16:30:26.846Z,16.40
2018-06-13T16:32:55.344Z,16.40
2018-06-13T16:35:24.062Z,16.50
2018-06-13T16:37:53.056Z,16.40
2018-06-13T16:40:21.759Z,16.30
2018-06-13T16:42:50.353Z,16.30
2018-06-13T16:45:18.925Z,16.30
2018-06-13T16:47:47.467Z,16.30
2018-06-13T16:50:27.305Z,16.30
2018-06-13T16:54:06.484Z,16.30
2018-06-13T16:56:35.016Z,16.30
2018-06-13T16:59:03.505Z,16.30
2018-06-13T17:01:32.052Z,16.30
2018-06-13T17:04:00.641Z,16.30
2018-06-13T17:06:29.166Z,16.20
2018-06-13T17:08:57.705Z,16.30
2018-06-13T17:11:26.168Z,16.30
2018-06-13T17:13:54.663Z,16.40
2018-06-13T17:16:23.833Z,16.30
2018-06-13T17:18:52.469Z,16.30
2018-06-13T17:21:21.200Z,16.30
2018-06-13T17:23:49.716Z,16.30
2018-06-13T17:26:18.323Z,16.40
2018-06-13T17:28:46.895Z,16.30
2018-06-13T17:31:15.839Z,16.40
2018-06-13T17:33:44.630Z,16.30
2018-06-13T17:36:13.115Z,16.30
2018-06-13T17:38:41.660Z,16.20
2018-06-13T17:41:10.379Z,16.30
2018-06-13T17:43:39.711Z,16.30
2018-06-13T17:46:08.322Z,16.30
2018-06-13T17:48:36.835Z,16.20
2018-06-13T17:51:05.328Z,16.20
2018-06-13T17:53:33.804Z,16.20
2018-06-13T17:56:02.331Z,16.20
2018-06-13T17:58:30.914Z,16.20
2018-06-13T18:00:59.471Z,16.10
2018-06-13T18:03:27.944Z,16.10
2018-06-13T18:05:56.493Z,16.10
2018-06-13T18:08:25.013Z,16.00
2018-06-13T18:10:53.572Z,16.00
2018-06-13T18:13:22.126Z,15.90
2018-06-13T18:15:50.890Z,15.90
2018-06-13T18:18:19.474Z,15.80
2018-06-13T18:23:16.495Z,15.80
2018-06-13T18:25:45.178Z,15.80
2018-06-13T18:28:13.723Z,15.70
2018-06-13T18:30:42.212Z,15.70
2018-06-13T18:33:10.762Z,15.70
2018-06-13T18:35:39.275Z,15.70
2018-06-13T18:38:07.807Z,15.70
2018-06-13T18:40:36.796Z,15.60
2018-06-13T18:43:05.364Z,15.60
2018-06-13T18:45:34.015Z,15.60
2018-06-13T18:48:02.570Z,15.60
2018-06-13T18:50:31.124Z,15.60
2018-06-13T18:52:59.620Z,15.60
2018-06-13T18:55:28.153Z,15.50
2018-06-13T18:57:56.736Z,15.50
2018-06-13T19:00:25.239Z,15.50
2018-06-13T19:02:53.696Z,15.50
2018-06-13T19:05:22.243Z,15.50
2018-06-13T19:07:50.811Z,15.40
2018-06-13T19:10:19.416Z,15.40
2018-06-13T19:12:47.960Z,15.40
2018-06-13T19:15:16.491Z,15.30
2018-06-13T19:17:46.075Z,15.40
2018-06-13T19:20:14.617Z,15.40
2018-06-13T19:22:43.268Z,15.40
2018-06-13T19:25:11.912Z,15.40
2018-06-13T19:30:08.863Z,15.40
2018-06-13T19:32:38.416Z,15.40
2018-06-13T19:35:06.899Z,15.40
2018-06-13T19:37:35.436Z,15.40
2018-06-13T19:40:04.049Z,15.40
2018-06-13T19:45:01.058Z,15.40
2018-06-13T19:47:34.734Z,15.40
2018-06-13T19:50:03.265Z,15.40
2018-06-13T19:52:37.028Z,15.30
2018-06-13T19:55:10.741Z,15.30
2018-06-13T19:57:39.271Z,15.30
2018-06-13T20:00:07.754Z,15.40
2018-06-13T20:02:41.545Z,15.40
2018-06-13T20:05:15.519Z,15.30
2018-06-13T20:07:44.250Z,15.40
2018-06-13T20:10:13.069Z,15.30
2018-06-13T20:15:20.347Z,15.20
2018-06-13T20:17:54.367Z,15.10
2018-06-13T20:20:22.921Z,15.20
2018-06-13T20:22:51.573Z,15.30
2018-06-13T20:25:25.463Z,15.20
2018-06-13T20:27:59.343Z,15.20
2018-06-13T20:30:33.273Z,15.10
2018-06-13T20:35:31.186Z,15.00
2018-06-13T20:37:59.861Z,15.00
2018-06-13T20:40:28.544Z,15.00
2018-06-13T20:42:57.050Z,15.00
2018-06-13T20:45:25.726Z,15.10
2018-06-13T20:47:54.396Z,15.00
2018-06-13T20:50:22.942Z,14.90
2018-06-13T20:52:51.454Z,15.00
2018-06-13T20:55:19.966Z,15.00
2018-06-13T20:57:48.536Z,15.00
2018-06-13T21:00:17.036Z,14.90
2018-06-13T21:02:45.702Z,14.90
2018-06-13T21:05:14.217Z,14.90
2018-06-13T21:07:42.674Z,14.90
2018-06-13T21:10:11.222Z,14.90
2018-06-13T21:12:39.678Z,14.90
2018-06-13T21:15:08.257Z,14.90
2018-06-13T21:17:36.874Z,14.90
2018-06-13T21:20:06.783Z,14.90
2018-06-13T21:22:35.579Z,14.80
2018-06-13T21:25:04.091Z,14.70
2018-06-13T21:27:32.921Z,14.70
2018-06-13T21:30:01.455Z,14.80
2018-06-13T21:32:30.126Z,14.80
2018-06-13T21:34:58.841Z,14.70
2018-06-13T21:37:27.503Z,14.60
2018-06-13T21:39:56.029Z,14.60
2018-06-13T21:42:24.655Z,14.60
2018-06-13T21:44:53.396Z,14.70
2018-06-13T21:47:22.099Z,14.70
2018-06-13T21:52:18.797Z,14.60
2018-06-13T21:54:47.222Z,14.60
2018-06-13T21:57:15.693Z,14.50
2018-06-13T21:59:44.191Z,14.60
2018-06-13T22:02:12.682Z,14.60
2018-06-13T22:04:41.292Z,14.60
2018-06-13T22:07:09.849Z,14.50
2018-06-13T22:09:38.309Z,14.50
2018-06-13T22:12:06.818Z,14.40
2018-06-13T22:14:35.414Z,14.50
2018-06-13T22:17:04.026Z,14.40
2018-06-13T22:19:32.640Z,14.50
2018-06-13T22:22:01.129Z,14.50
2018-06-13T22:26:58.040Z,14.40
2018-06-13T22:29:26.504Z,14.50
2018-06-13T22:31:55.034Z,14.50
2018-06-13T22:34:23.683Z,14.50
2018-06-13T22:36:52.389Z,14.60
2018-06-13T22:39:20.882Z,14.60
2018-06-13T22:41:49.314Z,14.60
2018-06-13T22:44:17.781Z,14.60
2018-06-13T22:46:46.278Z,14.60
2018-06-13T22:49:14.743Z,14.50
2018-06-13T22:51:43.263Z,14.30
2018-06-13T22:54:11.727Z,14.50
2018-06-13T22:56:40.224Z,14.60
2018-06-13T22:59:08.694Z,14.60
2018-06-13T23:01:37.156Z,14.50
2018-06-13T23:04:06.171Z,14.30
2018-06-13T23:06:34.856Z,14.20
2018-06-13T23:09:03.596Z,14.30
2018-06-13T23:11:32.047Z,14.30
2018-06-13T23:14:00.530Z,14.30
2018-06-13T23:16:29.014Z,14.20
2018-06-13T23:18:57.479Z,14.20
2018-06-13T23:21:25.944Z,14.20
2018-06-13T23:23:54.529Z,14.20
2018-06-13T23:26:23.178Z,14.30
2018-06-13T23:28:51.651Z,14.30
2018-06-13T23:31:20.122Z,14.20
2018-06-13T23:33:48.652Z,14.30
2018-06-13T23:36:17.402Z,14.30
2018-06-13T23:41:14.118Z,14.20
2018-06-13T23:43:42.598Z,14.30
2018-06-13T23:46:11.054Z,14.40
2018-06-13T23:48:39.510Z,14.20
2018-06-13T23:51:07.937Z,14.10
2018-06-13T23:53:37.128Z,14.10
2018-06-13T23:56:05.631Z,14.10
2018-06-13T23:58:34.360Z,14.10
